Aviation Digital Data Service (ADDS)

Output produced by METARs form (1757 UTC 20 January 2019)
found at http://www.aviationweather.gov/metar/data/
 
KBID 201748Z AUTO 12008KT 1 1/2SM -RA BR OVC003 06/06 A2922 RMK AO2 P0003
KUUU 201753Z AUTO 11006KT 4SM -RA BR SCT001 OVC075 04/04 A2920 RMK AO2 SLP887 P0010 60105 T00440039 10044 20022 58052
KOQU 201750Z 06008KT 8SM -RA SCT005 BKN045 OVC070 03/02 A2922 RMK PRESFR
KSFZ 201734Z AUTO VRB03G14KT 8SM -SN OVC002 M02/M02 A2924 RMK AO2 P0006 FZRANO
KPVD 201751Z 36003KT 2 1/2SM -RA BR BKN003 BKN019 OVC045 01/01 A2923 RMK AO2 SFC VIS 4 SLP898 P0010 60099 T00110006 10017 20000 58075 $
KPVD 201740Z 2018/2118 01010KT 3SM -FZRA BR OVC005 
     FM202000 33011G20KT P6SM VCSH OVC008 
     FM210000 33014G28KT P6SM BKN020 
     FM210400 32014G27KT P6SM SCT070
       
KWST 201753Z AUTO 06005KT 10SM -RA SCT003 OVC015 07/07 A2921 RMK AO2 RAE31B39 SLP890 P0001 60084 T00670067 10072 20033 56071